Airfield :
LOGIN :

Register | Disclaimer

   EN    FR    IT 

 










Legend :    VFR   Marginal VFR   IFR   Intensive IFR   Very Intensive IFR
Visi :
Ceiling :
>= 8 km
>= 3000ft
5 to 8 km
1000 to 3000 ft
1500m to 5 km
500 to 1000 ft
800 to 1500m
200 to 500 ft
< 800m
< 200 ft
Symbols :   Thunderstorms  Fog  Heavy snow  Heavy precipitations  Wind > 20 kt
SIGMETs :     Misc.  Thunderstorms  Icing  Turbulence  Mountain Waves  Volcanic Ashes






- Airport Elevation : 436 ft
- IATA code : ANG


LFBU - Angoulême Brie Champniers

CURRENT METAR :
  • 191000Z AUTO 19006KT 150V230 9999 BKN014 BKN080 OVC100 16/13 Q1007 TEMPO 3000 SHRA BKN008 BKN015TCU

EXPIRED METARs :
  • 190930Z AUTO 19005KT 150V220 9999 FEW011 BKN080 OVC100 16/13 Q1007 TEMPO 3000 SHRA BKN008 BKN015TCU
  • 190900Z AUTO 18005KT 150V210 9999 FEW010 BKN076 BKN140 15/13 Q1007 TEMPO 3000 SHRA BKN008 BKN015TCU
  • 190830Z AUTO 18006KT 150V210 9999 BKN009 BKN074 BKN100 14/13 Q1007 TEMPO 3000 SHRA BKN008 BKN015TCU
  • 190800Z AUTO 19004KT 160V220 9999 BKN009 OVC017 14/13 Q1007 TEMPO 3000 SHRA BKN008 BKN015TCU
  • 190730Z AUTO 18004KT 150V220 9999 BKN008 OVC013 14/13 Q1007 TEMPO 3000 SHRA SCT010 BKN015TCU

TAF AMD TAF LFBU
Valid from the 19 at 07:00 until the 20 at 06:00 UTC


190744Z 1907/2006 19010KT 9999 BKN040
TEMPO 1907/1912 3000 SHRA BKN008 BKN015TCU
BECMG 1915/1917 02005KT 4000 -RA BKN030
TEMPO 1920/2006 2500 RA OVC014



MET'MAP, your aeronautical weather chart ! - Copyright ORBIFLY December 2007 - Disclaimer

ORBIFLY MET'MAP TEAM :

Programming & Development : Alexandra Zaïnal
Concept & Development : Baudouin d'Aumeries
Co-Development & Prog : Marc-Olivier Méhu
Technical & hardware support : Manuel Goepfert

Contact : metmap@orbifly.com




SOURCES & CREDITS :

   NOAA